Time;durP1;ratioP1;P1;durP2;ratioP2;P2;SDS_P1;SDS_P2;PMS_P1;PMS_P2;Temp;Humidity;BMP_temperature;BMP_pressure;BME280_temperature;BME280_humidity;BME280_pressure;Samples;Min_cycle;Max_cycle;Signal;HPM_P1;HPM_P2
2023/12/05 00:00:42;;;;;;;8.10;7.00;;;;;;;14.01;28.21;100286.23;103924;1263;67994;-62
2023/12/05 00:03:10;;;;;;;8.50;7.10;;;;;;;14.06;28.07;100293.02;103923;1264;72438;-62
2023/12/05 00:05:39;;;;;;;8.70;7.80;;;;;;;14.09;28.03;100298.73;104136;1260;61574;-61
2023/12/05 00:08:07;;;;;;;12.20;8.30;;;;;;;14.12;27.71;100304.38;104111;1262;60102;-61
2023/12/05 00:10:34;;;;;;;8.90;7.80;;;;;;;13.94;27.97;100305.73;104073;1260;71940;-62
2023/12/05 00:13:03;;;;;;;10.10;7.80;;;;;;;13.98;27.94;100303.63;104537;1265;69077;-62
2023/12/05 00:15:32;;;;;;;9.90;8.20;;;;;;;13.83;27.84;100303.45;104101;1272;72884;-60
2023/12/05 00:17:59;;;;;;;;;;;;;;;13.48;28.19;100306.74;104136;1262;59636;-61
2023/12/05 00:20:27;;;;;;;11.70;9.20;;;;;;;13.30;28.34;100311.58;104212;1257;60037;-62
2023/12/05 00:22:55;;;;;;;9.40;8.00;;;;;;;13.20;28.38;100320.26;104261;1265;72227;-61
2023/12/05 00:25:22;;;;;;;9.80;8.60;;;;;;;13.18;28.23;100320.39;104197;1259;69196;-61
2023/12/05 00:27:51;;;;;;;13.70;9.00;;;;;;;13.03;28.56;100320.98;104061;1260;73218;-61
2023/12/05 00:30:19;;;;;;;10.90;8.70;;;;;;;12.96;28.62;100324.82;103922;1273;61160;-61
2023/12/05 00:32:46;;;;;;;10.30;8.30;;;;;;;12.89;28.74;100325.80;104178;1259;60347;-61
2023/12/05 00:35:16;;;;;;;11.60;8.80;;;;;;;12.92;28.79;100324.30;104089;1262;73281;-61
2023/12/05 00:37:43;;;;;;;11.10;9.00;;;;;;;12.83;28.51;100325.17;104157;1257;69220;-62
2023/12/05 00:40:11;;;;;;;11.70;9.30;;;;;;;12.69;28.78;100330.83;103784;1263;72412;-63
2023/12/05 00:42:39;;;;;;;11.00;9.40;;;;;;;12.64;28.78;100334.19;104296;1263;62132;-62
2023/12/05 00:45:09;;;;;;;9.20;7.80;;;;;;;12.64;28.81;100337.55;104098;1264;60187;-62
2023/12/05 00:47:36;;;;;;;11.20;8.20;;;;;;;12.58;28.74;100336.36;104165;1260;72811;-61
2023/12/05 00:50:04;;;;;;;;;;;;;;;12.62;28.73;100339.94;104053;1266;69528;-62
2023/12/05 00:52:33;;;;;;;10.80;8.90;;;;;;;12.61;28.83;100337.15;103996;1273;72377;-62
2023/12/05 00:55:01;;;;;;;11.50;9.40;;;;;;;12.38;28.66;100335.05;104065;1260;59742;-62
2023/12/05 00:57:28;;;;;;;11.20;9.30;;;;;;;12.32;28.93;100336.37;104222;1259;61001;-62
2023/12/05 00:59:56;;;;;;;10.90;9.70;;;;;;;12.32;28.66;100330.90;104141;1264;72104;-62
2023/12/05 01:02:24;;;;;;;13.20;9.50;;;;;;;12.43;28.64;100330.27;103834;1263;69061;-62
2023/12/05 01:04:52;;;;;;;14.00;9.50;;;;;;;12.51;28.35;100333.14;104243;1260;72970;-62
2023/12/05 01:07:20;;;;;;;10.30;9.10;;;;;;;12.49;28.38;100340.23;104015;1264;59916;-63
2023/12/05 01:09:48;;;;;;;11.60;9.30;;;;;;;12.38;28.60;100340.85;104099;1262;60261;-62
2023/12/05 01:12:16;;;;;;;12.90;8.90;;;;;;;12.27;28.43;100344.44;103768;1265;73027;-62
2023/12/05 01:14:43;;;;;;;;;;;;;;;12.13;28.58;100347.09;104028;1257;68517;-63
2023/12/05 01:17:11;;;;;;;;;;;;;;;12.12;28.50;100351.34;104145;1274;72218;-62
2023/12/05 01:19:39;;;;;;;13.40;9.50;;;;;;;12.14;28.54;100357.80;103950;1260;60769;-64
2023/12/05 01:22:06;;;;;;;;;;;;;;;12.14;28.64;100362.70;104001;1266;60232;-63
2023/12/05 01:24:34;;;;;;;13.70;9.90;;;;;;;12.19;28.37;100361.83;104042;1260;72846;-62
2023/12/05 01:27:02;;;;;;;;;;;;;;;12.04;28.52;100358.32;104075;1258;70016;-62
2023/12/05 01:29:30;;;;;;;12.90;9.90;;;;;;;11.85;28.64;100355.50;103767;1272;72389;-62
2023/12/05 01:31:57;;;;;;;12.00;10.40;;;;;;;11.78;28.73;100358.55;104097;1260;59950;-61
2023/12/05 01:34:25;;;;;;;13.40;10.70;;;;;;;11.75;28.72;100352.16;104126;1260;59769;-62
2023/12/05 01:36:53;;;;;;;;;;;;;;;11.76;28.85;100351.61;103960;1258;72746;-62
2023/12/05 01:39:21;;;;;;;12.40;10.20;;;;;;;11.83;28.61;100350.28;103975;1268;69088;-62
2023/12/05 01:41:49;;;;;;;13.90;10.80;;;;;;;11.83;28.73;100346.08;105113;1256;72496;-62
2023/12/05 01:44:17;;;;;;;14.00;10.40;;;;;;;11.86;28.67;100346.67;104511;1256;61902;-63
2023/12/05 01:46:44;;;;;;;;;;;;;;;11.94;28.44;100345.70;104394;1256;60706;-63
2023/12/05 01:49:12;;;;;;;16.50;11.60;;;;;;;12.09;28.48;100348.47;104354;1272;72801;-63
2023/12/05 01:51:49;;;;;;;13.90;10.70;;;;;;;12.14;28.41;100341.60;104476;1257;69132;-60
2023/12/05 01:54:18;;;;;;;16.40;11.50;;;;;;;12.07;28.21;100342.21;104353;1255;72367;-63
2023/12/05 01:56:46;;;;;;;15.20;11.40;;;;;;;12.03;28.46;100338.69;104321;1259;60695;-61
2023/12/05 01:59:13;;;;;;;;;;;;;;;11.99;28.40;100337.96;104600;1251;60096;-62
2023/12/05 02:01:41;;;;;;;17.40;12.40;;;;;;;11.98;28.34;100334.15;104745;1253;71721;-61
2023/12/05 02:04:09;;;;;;;19.40;12.50;;;;;;;11.92;28.39;100331.89;104711;1256;69744;-61
2023/12/05 02:06:37;;;;;;;16.10;12.60;;;;;;;11.93;28.39;100332.89;104543;1259;71081;-61
2023/12/05 02:09:04;;;;;;;17.60;12.40;;;;;;;12.00;28.28;100328.08;104893;1257;62112;-60
2023/12/05 02:11:32;;;;;;;15.10;11.40;;;;;;;12.08;28.27;100328.31;104789;1257;60679;-60
2023/12/05 02:14:00;;;;;;;16.20;11.90;;;;;;;12.12;28.21;100328.17;104443;1269;73258;-61
2023/12/05 02:16:31;;;;;;;15.40;11.60;;;;;;;12.07;27.78;100332.73;104380;1263;70147;-63
2023/12/05 02:19:06;;;;;;;19.30;12.50;;;;;;;11.89;27.87;100333.03;104539;1256;72423;-61
2023/12/05 02:21:34;;;;;;;16.90;12.10;;;;;;;11.85;27.98;100334.91;104650;1255;59969;-61
2023/12/05 02:24:15;;;;;;;19.70;12.80;;;;;;;11.69;28.09;100334.31;104842;1255;60629;-61
2023/12/05 02:27:05;;;;;;;18.60;12.20;;;;;;;11.67;28.16;100340.50;108323;1250;73361;-62
2023/12/05 02:29:33;;;;;;;16.50;12.00;;;;;;;11.68;28.17;100333.77;108517;1250;69491;-63
2023/12/05 02:32:01;;;;;;;18.40;12.20;;;;;;;11.66;28.44;100334.39;108477;1251;72455;-62
2023/12/05 02:34:28;;;;;;;15.40;12.30;;;;;;;11.58;28.57;100337.15;108530;1249;59887;-63
2023/12/05 02:37:24;;;;;;;17.80;12.00;;;;;;;11.61;28.68;100337.89;108495;1250;60057;-60
2023/12/05 02:39:57;;;;;;;17.70;12.70;;;;;;;11.75;28.18;100336.89;108227;1250;72709;-60
2023/12/05 02:42:25;;;;;;;16.90;13.10;;;;;;;11.68;28.15;100339.96;108442;1250;69234;-60
2023/12/05 02:44:53;;;;;;;16.70;12.70;;;;;;;11.60;28.16;100342.34;108356;1250;72254;-60
2023/12/05 02:47:23;;;;;;;16.40;12.60;;;;;;;11.63;28.37;100342.93;108425;1250;59856;-60
2023/12/05 02:49:51;;;;;;;17.00;12.80;;;;;;;11.70;28.36;100343.57;108404;1250;59806;-61
2023/12/05 02:52:20;;;;;;;18.60;12.40;;;;;;;11.74;28.24;100341.67;108471;1254;72764;-61
2023/12/05 02:54:48;;;;;;;;;;;;;;;11.84;27.87;100344.09;108477;1250;69144;-61
2023/12/05 02:57:15;;;;;;;18.80;12.60;;;;;;;11.81;28.00;100344.91;108512;1250;73020;-62
2023/12/05 02:59:43;;;;;;;16.60;13.00;;;;;;;11.77;28.03;100349.11;108471;1253;60803;-61
2023/12/05 03:02:11;;;;;;;14.90;12.20;;;;;;;11.92;27.87;100352.09;108491;1249;58745;-62
2023/12/05 03:04:42;;;;;;;17.30;13.10;;;;;;;12.00;27.73;100345.98;108379;1250;73584;-62
2023/12/05 03:07:10;;;;;;;16.40;12.40;;;;;;;12.08;27.67;100350.44;108500;1250;69318;-62
2023/12/05 03:09:37;;;;;;;;;;;;;;;12.10;27.41;100349.16;108501;1250;71667;-65
2023/12/05 03:12:05;;;;;;;16.20;11.90;;;;;;;12.08;27.60;100346.58;108513;1250;59874;-62
2023/12/05 03:14:33;;;;;;;17.50;12.80;;;;;;;11.99;27.31;100351.84;108471;1250;58926;-62
2023/12/05 03:17:01;;;;;;;20.20;12.60;;;;;;;11.94;27.49;100351.16;108523;1250;73806;-62
2023/12/05 03:19:29;;;;;;;17.30;12.10;;;;;;;11.95;27.63;100350.95;108470;1250;69165;-61
2023/12/05 03:21:57;;;;;;;18.40;12.20;;;;;;;11.96;27.53;100351.77;108454;1251;73387;-62
2023/12/05 03:24:25;;;;;;;;;;;;;;;11.96;27.46;100351.77;108486;1250;59193;-62
2023/12/05 03:26:54;;;;;;;17.50;11.80;;;;;;;12.02;27.54;100357.53;108465;1255;59439;-61
2023/12/05 03:29:22;;;;;;;15.40;12.00;;;;;;;11.98;27.31;100353.98;108499;1250;72000;-62
2023/12/05 03:31:49;;;;;;;;;;;;;;;11.86;27.43;100353.66;108456;1252;69635;-63
2023/12/05 03:34:17;;;;;;;17.20;11.80;;;;;;;11.78;27.42;100355.40;108450;1251;71784;-61
2023/12/05 03:36:44;;;;;;;;;;;;;;;11.85;27.36;100361.27;108458;1250;60824;-62
2023/12/05 03:39:12;;;;;;;16.80;11.70;;;;;;;11.85;27.19;100365.67;108427;1252;59412;-62
2023/12/05 03:41:40;;;;;;;;;;;;;;;11.76;27.53;100366.34;108482;1250;74130;-62
2023/12/05 03:44:08;;;;;;;17.80;11.70;;;;;;;11.63;27.44;100367.35;108495;1250;68483;-62
2023/12/05 03:46:36;;;;;;;18.10;12.90;;;;;;;11.70;27.21;100364.13;108452;1250;72467;-62
2023/12/05 03:49:03;;;;;;;18.40;13.10;;;;;;;11.73;27.25;100369.11;108443;1252;59899;-60
2023/12/05 03:51:31;;;;;;;20.70;13.30;;;;;;;11.48;27.38;100368.73;108488;1250;60639;-60
2023/12/05 03:53:59;;;;;;;18.50;13.90;;;;;;;11.37;27.71;100374.05;108470;1251;73746;-63
2023/12/05 03:56:26;;;;;;;;;;;;;;;11.25;27.71;100370.60;108441;1250;68482;-62
2023/12/05 03:58:54;;;;;;;19.00;13.20;;;;;;;11.27;27.80;100366.48;108450;1250;72284;-62
2023/12/05 04:01:22;;;;;;;;;;;;;;;11.48;27.69;100363.30;108477;1250;60474;-63
2023/12/05 04:03:49;;;;;;;20.80;13.70;;;;;;;11.57;27.59;100361.23;108522;1250;60277;-63
2023/12/05 04:06:21;;;;;;;20.10;12.40;;;;;;;11.62;27.48;100352.48;108399;1253;73761;-64
2023/12/05 04:08:50;;;;;;;21.10;13.50;;;;;;;11.57;27.61;100352.30;108502;1250;69582;-63
2023/12/05 04:11:27;;;;;;;17.20;12.60;;;;;;;11.52;27.81;100351.56;108463;1250;73165;-65
2023/12/05 04:13:54;;;;;;;17.60;13.00;;;;;;;11.58;27.61;100348.20;108473;1251;59543;-65
2023/12/05 04:16:22;;;;;;;;;;;;;;;11.61;27.65;100345.80;108386;1251;59249;-64
2023/12/05 04:18:50;;;;;;;17.00;12.00;;;;;;;11.65;27.50;100347.42;108489;1250;73788;-63
2023/12/05 04:21:18;;;;;;;19.50;12.60;;;;;;;11.70;27.39;100346.02;108420;1250;70499;-64
2023/12/05 04:23:46;;;;;;;17.30;12.60;;;;;;;11.60;27.44;100347.44;108456;1250;72100;-63
2023/12/05 04:26:16;;;;;;;17.10;12.90;;;;;;;11.50;27.71;100352.67;108460;1250;60167;-64
2023/12/05 04:28:44;;;;;;;17.40;12.80;;;;;;;11.52;27.49;100349.13;108532;1250;60035;-63
2023/12/05 04:31:12;;;;;;;16.70;13.50;;;;;;;11.41;27.78;100348.96;108495;1250;74476;-63
2023/12/05 04:33:40;;;;;;;17.40;12.90;;;;;;;11.35;27.62;100347.78;108460;1250;69118;-63
2023/12/05 04:36:08;;;;;;;18.30;13.50;;;;;;;11.27;27.59;100344.72;108524;1250;72878;-63
2023/12/05 04:38:36;;;;;;;21.20;13.80;;;;;;;11.14;27.85;100355.36;108526;1250;59888;-63
2023/12/05 04:41:04;;;;;;;17.40;12.70;;;;;;;11.10;27.74;100361.42;108531;1251;58652;-63
2023/12/05 04:43:31;;;;;;;18.40;13.40;;;;;;;11.10;27.95;100360.73;108461;1250;74451;-63
2023/12/05 04:45:59;;;;;;;16.60;13.10;;;;;;;11.16;27.93;100356.17;108533;1250;69186;-64
2023/12/05 04:48:27;;;;;;;17.40;13.10;;;;;;;11.26;27.85;100349.66;108414;1253;72261;-63
2023/12/05 04:50:56;;;;;;;18.00;13.30;;;;;;;11.43;27.67;100351.55;108494;1250;60692;-65
2023/12/05 04:53:24;;;;;;;;;;;;;;;11.53;27.57;100349.77;108392;1250;58611;-63
2023/12/05 04:55:51;;;;;;;19.00;13.20;;;;;;;11.57;27.55;100351.25;108492;1250;76529;-64
2023/12/05 04:58:19;;;;;;;;;;;;;;;11.48;27.63;100354.33;108551;1250;69190;-63
2023/12/05 05:00:47;;;;;;;17.70;13.60;;;;;;;11.49;27.74;100358.36;108470;1251;73347;-63
2023/12/05 05:03:16;;;;;;;16.00;13.10;;;;;;;11.50;27.75;100363.05;108490;1250;60114;-64
2023/12/05 05:05:44;;;;;;;18.70;14.50;;;;;;;11.52;27.65;100365.63;108509;1251;59618;-63
2023/12/05 05:08:11;;;;;;;;;;;;;;;11.49;27.69;100366.26;108511;1252;74093;-63
2023/12/05 05:10:39;;;;;;;18.20;11.70;;;;;;;11.53;27.68;100363.14;108459;1250;69331;-63
2023/12/05 05:13:07;;;;;;;15.30;12.50;;;;;;;11.55;27.60;100361.29;108385;1253;72537;-61
2023/12/05 05:15:34;;;;;;;15.60;13.20;;;;;;;11.50;27.55;100358.84;108498;1250;59811;-61
2023/12/05 05:18:02;;;;;;;;;;;;;;;11.47;27.64;100363.34;108413;1250;60409;-61
2023/12/05 05:20:30;;;;;;;18.90;12.80;;;;;;;11.47;27.49;100367.71;108434;1250;72707;-61
2023/12/05 05:22:57;;;;;;;;;;;;;;;11.33;27.74;100372.59;108443;1250;69067;-63
2023/12/05 05:25:25;;;;;;;15.20;11.70;;;;;;;11.33;27.69;100375.77;108373;1253;72401;-62
2023/12/05 05:27:52;;;;;;;;;;;;;;;11.26;27.72;100371.09;108440;1250;59826;-62
2023/12/05 05:30:20;;;;;;;18.70;13.00;;;;;;;11.23;27.64;100378.52;108438;1251;58458;-61
2023/12/05 05:32:48;;;;;;;;;;;;;;;11.19;27.66;100383.60;108448;1250;74476;-62
2023/12/05 05:35:15;;;;;;;20.00;13.10;;;;;;;11.21;27.43;100373.88;108484;1253;69229;-61
2023/12/05 05:37:43;;;;;;;;;;;;;;;11.22;27.55;100382.09;108500;1250;72343;-61
2023/12/05 05:40:11;;;;;;;16.90;12.50;;;;;;;11.20;27.64;100380.59;108495;1250;59173;-62
2023/12/05 05:42:39;;;;;;;19.50;13.80;;;;;;;11.20;27.63;100383.91;108330;1253;58792;-65
2023/12/05 05:48:35;;;;;;;19.70;14.30;;;;;;;11.23;27.63;100398.58;101694;1294;601386;-61
2023/12/05 05:51:04;;;;;;;18.50;14.50;;;;;;;11.13;27.54;100400.48;104150;1266;59854;-61
2023/12/05 05:53:32;;;;;;;20.40;14.20;;;;;;;11.14;27.62;100405.53;103965;1263;59759;-61
2023/12/05 05:56:00;;;;;;;17.90;12.90;;;;;;;11.20;27.49;100408.67;104679;1263;72820;-62
2023/12/05 05:58:28;;;;;;;20.50;14.30;;;;;;;10.97;27.50;100411.86;104358;1262;69141;-60
2023/12/05 06:00:55;;;;;;;21.60;14.90;;;;;;;10.70;27.58;100417.08;103938;1263;71302;-59
2023/12/05 06:03:26;;;;;;;19.20;14.10;;;;;;;10.72;27.90;100423.16;107340;1257;186992;-61
2023/12/05 06:05:54;;;;;;;18.90;14.30;;;;;;;10.73;27.85;100424.38;107632;1257;59711;-60
2023/12/05 06:08:22;;;;;;;18.30;13.50;;;;;;;10.71;27.78;100426.02;107464;1259;72059;-60
2023/12/05 06:10:49;;;;;;;20.50;15.30;;;;;;;10.74;27.84;100423.83;107551;1257;69629;-60
2023/12/05 06:13:17;;;;;;;;;;;;;;;10.85;28.07;100427.85;107566;1260;72946;-59
2023/12/05 06:15:44;;;;;;;20.60;13.70;;;;;;;10.96;28.05;100425.05;107567;1258;59860;-60
2023/12/05 06:18:15;;;;;;;;;;;;;;;11.03;27.81;100431.67;107559;1257;59697;-61
2023/12/05 06:20:43;;;;;;;20.30;13.80;;;;;;;11.06;27.63;100434.71;107543;1257;73673;-60
2023/12/05 06:23:11;;;;;;;22.20;14.80;;;;;;;11.06;27.80;100438.07;107481;1259;69180;-60
2023/12/05 06:25:39;;;;;;;21.80;15.10;;;;;;;11.01;27.94;100441.92;107595;1258;73316;-60
2023/12/05 06:28:07;;;;;;;29.10;16.30;;;;;;;11.07;27.87;100442.42;107461;1257;59264;-60
2023/12/05 06:30:34;;;;;;;26.80;17.30;;;;;;;11.12;27.62;100444.54;107512;1259;59748;-59
2023/12/05 06:33:02;;;;;;;;;;;;;;;11.11;27.78;100453.52;107626;1258;72897;-59
2023/12/05 06:35:30;;;;;;;28.30;18.10;;;;;;;11.25;27.80;100447.98;107628;1257;68355;-59
2023/12/05 06:37:57;;;;;;;27.90;18.30;;;;;;;11.38;27.91;100440.36;107552;1257;74420;-59
2023/12/05 06:40:25;;;;;;;;;;;;;;;11.48;27.88;100438.80;107549;1259;59800;-60
2023/12/05 06:42:52;;;;;;;22.90;15.70;;;;;;;11.59;27.72;100433.34;107572;1259;60506;-60
2023/12/05 06:45:20;;;;;;;;;;;;;;;11.57;27.49;100433.95;107577;1258;72951;-62
2023/12/05 06:47:48;;;;;;;23.10;16.70;;;;;;;11.58;27.56;100434.95;107594;1257;70238;-60
2023/12/05 06:50:15;;;;;;;;;;;;;;;11.62;27.72;100437.95;107601;1259;72366;-59
2023/12/05 06:52:43;;;;;;;30.10;19.70;;;;;;;11.77;27.42;100437.63;107489;1259;58879;-59
2023/12/05 06:55:10;;;;;;;27.30;17.90;;;;;;;11.89;27.20;100436.35;107942;1255;58860;-60
2023/12/05 06:57:38;;;;;;;;;;;;;;;11.86;27.23;100435.55;107892;1257;72787;-61
2023/12/05 07:00:08;;;;;;;34.80;24.60;;;;;;;11.87;27.15;100437.63;107843;1254;69240;-60
2023/12/05 07:02:36;;;;;;;32.50;20.40;;;;;;;12.03;27.26;100441.46;107846;1256;72184;-59
2023/12/05 07:05:04;;;;;;;56.80;34.10;;;;;;;12.11;27.08;100441.20;107919;1254;60117;-60
2023/12/05 07:07:33;;;;;;;80.70;46.50;;;;;;;12.08;27.15;100444.80;107849;1254;59802;-59
2023/12/05 07:10:00;;;;;;;;;;;;;;;12.04;27.36;100448.48;107847;1256;72848;-60
2023/12/05 07:12:29;;;;;;;166.90;98.10;;;;;;;12.15;27.13;100446.66;107922;1253;68168;-59
2023/12/05 07:14:56;;;;;;;142.10;85.70;;;;;;;11.97;27.55;100444.49;107875;1254;72862;-58
2023/12/05 07:17:24;;;;;;;94.00;57.50;;;;;;;11.95;27.57;100445.45;107993;1254;59766;-60
2023/12/05 07:19:52;;;;;;;77.80;49.70;;;;;;;12.03;27.47;100446.38;108028;1254;60348;-59
2023/12/05 07:22:19;;;;;;;57.80;36.40;;;;;;;11.95;27.46;100452.33;108047;1254;73237;-59
2023/12/05 07:24:47;;;;;;;50.30;31.60;;;;;;;11.81;27.62;100449.61;107953;1254;69074;-59
2023/12/05 07:27:15;;;;;;;48.80;29.90;;;;;;;11.85;27.93;100449.64;108089;1254;72639;-60
2023/12/05 07:29:42;;;;;;;;;;;;;;;11.86;28.00;100452.23;107968;1254;60748;-60
2023/12/05 07:32:11;;;;;;;38.00;24.50;;;;;;;11.89;27.89;100449.67;107894;1254;60491;-59
2023/12/05 07:34:41;;;;;;;31.80;22.00;;;;;;;11.99;28.19;100453.75;108086;1253;73446;-60
2023/12/05 07:37:09;;;;;;;46.00;28.20;;;;;;;12.13;28.07;100450.61;107895;1260;69034;-60
2023/12/05 07:39:37;;;;;;;36.60;24.20;;;;;;;12.27;27.98;100450.11;107978;1254;72302;-60
2023/12/05 07:42:04;;;;;;;;;;;;;;;12.40;28.02;100452.43;108019;1254;59796;-59
2023/12/05 07:44:32;;;;;;;29.00;20.60;;;;;;;12.48;27.86;100451.96;108015;1254;59755;-60
2023/12/05 07:46:59;;;;;;;27.00;21.00;;;;;;;12.54;27.78;100449.96;107953;1256;73328;-60
2023/12/05 07:49:27;;;;;;;29.00;18.80;;;;;;;12.58;27.92;100450.17;108094;1254;69205;-60
2023/12/05 07:51:55;;;;;;;;;;;;;;;12.73;27.81;100445.89;107970;1256;71147;-61
2023/12/05 07:54:24;;;;;;;29.00;19.50;;;;;;;12.94;27.64;100449.11;107919;1254;59817;-60
2023/12/05 07:56:52;;;;;;;33.20;22.40;;;;;;;12.92;27.44;100444.10;107989;1254;59567;-59
2023/12/05 07:59:20;;;;;;;;;;;;;;;12.84;27.52;100441.77;108034;1253;73409;-58
2023/12/05 08:01:47;;;;;;;;;;;;;;;12.85;27.64;100436.42;107951;1254;70463;-59
2023/12/05 08:04:15;;;;;;;25.30;17.90;;;;;;;12.90;27.63;100435.05;107985;1254;73315;-60
2023/12/05 08:06:43;;;;;;;;;;;;;;;12.92;27.55;100434.77;108068;1253;58640;-60
2023/12/05 08:09:10;;;;;;;26.80;19.10;;;;;;;12.96;27.67;100437.94;107966;1254;60165;-60
2023/12/05 08:11:38;;;;;;;30.30;20.20;;;;;;;12.86;27.68;100439.58;107970;1254;71851;-61
2023/12/05 08:14:06;;;;;;;;;;;;;;;12.73;28.12;100443.09;107939;1253;68458;-61
2023/12/05 08:16:33;;;;;;;28.40;20.10;;;;;;;12.80;28.13;100436.81;107947;1256;71389;-61
2023/12/05 08:19:01;;;;;;;;;;;;;;;12.72;28.15;100438.20;108060;1254;60110;-61
2023/12/05 08:21:29;;;;;;;27.40;20.10;;;;;;;12.74;28.29;100439.50;107891;1254;59757;-60
2023/12/05 08:23:57;;;;;;;26.90;19.50;;;;;;;12.83;28.16;100438.83;107918;1254;73041;-60
2023/12/05 08:26:24;;;;;;;22.60;16.90;;;;;;;12.90;28.33;100444.36;107937;1253;68926;-60
2023/12/05 08:28:52;;;;;;;24.40;18.40;;;;;;;13.04;28.39;100446.06;107952;1254;73076;-60
2023/12/05 08:31:20;;;;;;;24.90;18.40;;;;;;;13.11;28.31;100445.99;108082;1255;60635;-60
2023/12/05 08:33:47;;;;;;;;;;;;;;;13.21;28.37;100445.05;108353;1250;59665;-59
2023/12/05 08:36:15;;;;;;;23.50;18.00;;;;;;;13.24;28.51;100441.05;108499;1250;72941;-61
2023/12/05 09:00:40;;;;;;;18.70;14.80;;;;;;;13.51;28.39;100413.74;108577;1251;72688;-61
2023/12/05 09:03:08;;;;;;;22.60;15.70;;;;;;;13.48;28.52;100412.29;108424;1251;70094;-61
2023/12/05 09:05:36;;;;;;;22.70;16.00;;;;;;;13.64;28.36;100410.86;108503;1250;72481;-61
2023/12/05 09:08:04;;;;;;;;;;;;;;;13.87;28.11;100405.98;108474;1250;60664;-61
2023/12/05 09:10:32;;;;;;;20.00;14.80;;;;;;;14.01;28.15;100404.64;108481;1250;59703;-62
2023/12/05 09:13:00;;;;;;;23.60;15.90;;;;;;;14.17;28.11;100404.64;108445;1250;73258;-62
2023/12/05 09:15:28;;;;;;;24.00;16.60;;;;;;;14.30;27.82;100401.73;108498;1250;69812;-61
2023/12/05 09:17:57;;;;;;;21.70;15.90;;;;;;;14.23;28.09;100396.62;108450;1250;72310;-61
2023/12/05 09:20:25;;;;;;;17.80;13.80;;;;;;;14.21;28.11;100397.58;108503;1250;58964;-61
2023/12/05 09:22:52;;;;;;;19.50;15.10;;;;;;;14.31;28.05;100391.84;108459;1250;59837;-60
2023/12/05 09:25:28;;;;;;;17.70;14.70;;;;;;;14.32;27.98;100394.27;108465;1250;72836;-61
2023/12/05 09:27:55;;;;;;;;;;;;;;;14.39;28.10;100389.52;108495;1250;69182;-61
2023/12/05 09:30:24;;;;;;;19.90;15.40;;;;;;;14.46;27.96;100391.33;108490;1250;72309;-60
2023/12/05 09:32:51;;;;;;;21.10;16.20;;;;;;;14.51;27.92;100384.57;108457;1251;58297;-60
2023/12/05 09:35:20;;;;;;;22.70;17.30;;;;;;;14.50;28.12;100382.30;108507;1250;59773;-60
2023/12/05 09:37:48;;;;;;;22.60;17.30;;;;;;;14.55;28.08;100377.34;108449;1250;72869;-60
2023/12/05 09:40:16;;;;;;;23.50;17.80;;;;;;;14.40;28.27;100381.70;108489;1250;69596;-61
2023/12/05 09:42:44;;;;;;;23.50;17.60;;;;;;;14.25;28.41;100379.61;108468;1250;72215;-60
2023/12/05 09:45:13;;;;;;;26.80;18.60;;;;;;;14.41;28.32;100381.49;108184;1250;58054;-59
2023/12/05 09:47:43;;;;;;;22.00;17.10;;;;;;;14.51;28.38;100381.40;108253;1250;59786;-61
2023/12/05 09:50:11;;;;;;;19.60;15.90;;;;;;;14.43;28.35;100383.16;108432;1251;73664;-61
2023/12/05 09:52:39;;;;;;;23.00;16.90;;;;;;;14.52;28.41;100382.21;108420;1250;69199;-61
2023/12/05 09:55:07;;;;;;;20.90;16.50;;;;;;;14.64;28.15;100378.70;108267;1251;72507;-61
2023/12/05 09:57:35;;;;;;;20.90;16.80;;;;;;;14.73;28.23;100372.08;108362;1251;59593;-61
2023/12/05 10:00:03;;;;;;;24.10;17.50;;;;;;;14.82;28.06;100380.48;108309;1250;59931;-61
2023/12/05 10:02:37;;;;;;;23.70;17.40;;;;;;;14.84;28.12;100381.42;108448;1250;73677;-61
2023/12/05 10:05:06;;;;;;;24.10;17.60;;;;;;;14.88;28.09;100379.11;108469;1250;69135;-61
2023/12/05 10:07:33;;;;;;;18.90;16.30;;;;;;;15.13;27.82;100375.73;108361;1253;72877;-61
2023/12/05 10:10:02;;;;;;;23.20;15.20;;;;;;;15.24;27.77;100377.67;108293;1252;58988;-61
2023/12/05 10:12:31;;;;;;;18.80;15.30;;;;;;;15.37;27.76;100378.41;108456;1250;59860;-62
2023/12/05 10:14:59;;;;;;;;;;;;;;;15.44;27.66;100375.59;108453;1252;74551;-61
2023/12/05 10:17:28;;;;;;;18.50;14.40;;;;;;;15.53;27.62;100380.41;108505;1253;70118;-61
2023/12/05 10:19:56;;;;;;;17.00;13.80;;;;;;;15.57;27.46;100382.03;108468;1250;72390;-62
2023/12/05 10:22:25;;;;;;;;;;;;;;;15.39;27.68;100378.87;108435;1251;59049;-61
2023/12/05 10:24:54;;;;;;;16.20;12.90;;;;;;;15.29;27.91;100386.27;108459;1250;59925;-61
2023/12/05 10:27:22;;;;;;;19.60;14.30;;;;;;;15.27;27.93;100384.98;108393;1250;73674;-61
2023/12/05 10:29:49;;;;;;;;;;;;;;;15.29;28.01;100385.93;108487;1250;69341;-62
2023/12/05 10:32:17;;;;;;;;;;;;;;;15.27;27.88;100386.39;108473;1251;73092;-62
2023/12/05 10:34:45;;;;;;;;;;;;;;;15.39;27.83;100382.04;108217;1253;59405;-62
2023/12/05 10:37:13;;;;;;;16.80;12.80;;;;;;;15.65;27.53;100383.19;108472;1250;59793;-59
2023/12/05 10:39:41;;;;;;;22.00;16.90;;;;;;;15.70;27.48;100383.65;108511;1250;73649;-60
2023/12/05 10:42:09;;;;;;;23.00;16.50;;;;;;;15.68;27.44;100381.80;108455;1252;69314;-61
2023/12/05 10:44:39;;;;;;;19.20;14.50;;;;;;;15.58;27.45;100374.90;108417;1250;72658;-61
2023/12/05 10:47:07;;;;;;;19.30;15.20;;;;;;;15.25;27.87;100375.48;108475;1250;59284;-61
2023/12/05 10:49:35;;;;;;;20.50;15.00;;;;;;;15.20;27.97;100373.45;108062;1250;58912;-61
2023/12/05 10:52:04;;;;;;;20.30;14.40;;;;;;;15.14;28.17;100373.39;108317;1251;73938;-61
2023/12/05 10:54:31;;;;;;;19.40;15.20;;;;;;;15.24;28.23;100369.55;108439;1251;68587;-61
2023/12/05 10:56:59;;;;;;;21.40;16.10;;;;;;;15.40;28.10;100368.02;108568;1251;72352;-61
2023/12/05 10:59:28;;;;;;;19.10;16.20;;;;;;;15.60;27.84;100366.67;108516;1252;60139;-61
2023/12/05 11:01:56;;;;;;;16.90;13.40;;;;;;;15.69;27.82;100364.96;108471;1254;60776;-60
2023/12/05 11:04:24;;;;;;;19.60;14.90;;;;;;;15.64;27.93;100361.88;108428;1256;73520;-60
2023/12/05 11:06:52;;;;;;;20.30;14.30;;;;;;;15.56;27.99;100352.15;108399;1254;69208;-60
2023/12/05 11:09:20;;;;;;;;;;;;;;;15.52;28.18;100345.33;108460;1251;73406;-61
2023/12/05 11:11:50;;;;;;;18.50;13.80;;;;;;;15.49;28.17;100335.92;108461;1251;59088;-60
2023/12/05 11:14:19;;;;;;;16.50;13.90;;;;;;;15.57;28.22;100331.64;108504;1250;60031;-60
2023/12/05 11:16:49;;;;;;;18.70;15.10;;;;;;;15.60;28.10;100322.83;108493;1252;73637;-61
2023/12/05 11:19:38;;;;;;;19.30;15.30;;;;;;;15.58;28.22;100320.44;108434;1251;68044;-60
2023/12/05 11:22:24;;;;;;;19.90;15.90;;;;;;;15.57;28.14;100317.14;108281;1250;72761;-60
2023/12/05 11:25:19;;;;;;;18.60;15.50;;;;;;;15.57;28.25;100312.55;108270;1253;58359;-59
2023/12/05 11:27:58;;;;;;;18.30;15.30;;;;;;;15.67;28.34;100317.48;108420;1251;59956;-61
2023/12/05 11:30:48;;;;;;;19.50;15.70;;;;;;;15.75;28.11;100316.40;108241;1252;73982;-60
2023/12/05 11:33:26;;;;;;;20.50;16.40;;;;;;;15.90;28.13;100315.78;108399;1251;68516;-61
2023/12/05 11:36:12;;;;;;;19.30;15.80;;;;;;;15.97;28.01;100310.11;108212;1253;73381;-61
2023/12/05 11:38:40;;;;;;;20.50;15.50;;;;;;;16.03;27.88;100309.24;108421;1250;59373;-60
2023/12/05 11:42:12;;;;;;;18.50;15.20;;;;;;;14.65;30.45;100318.43;101568;1290;600908;-60
2023/12/05 11:44:42;;;;;;;21.20;15.60;;;;;;;16.35;27.66;100309.05;103756;1267;59372;-62
2023/12/05 11:47:23;;;;;;;19.20;15.50;;;;;;;16.43;27.62;100319.94;103647;1270;60091;-61
2023/12/05 11:49:55;;;;;;;17.20;14.20;;;;;;;16.40;27.48;100320.83;104008;1269;72525;-62